sensor_id;sensor_type;location;lat;lon;timestamp;pressure;altitude;pressure_sealevel;temperature;humidity
43161;BME280;40968;52.342;5.528;2022-10-16T00:02:22;100942.22;;;12.99;72.17
43161;BME280;40968;52.342;5.528;2022-10-16T00:04:49;100950.28;;;12.99;72.04
43161;BME280;40968;52.342;5.528;2022-10-16T00:07:16;100952.00;;;13.00;72.22
43161;BME280;40968;52.342;5.528;2022-10-16T00:09:42;100883.41;;;12.62;71.92
43161;BME280;40968;52.342;5.528;2022-10-16T00:12:09;100946.63;;;13.00;72.08
43161;BME280;40968;52.342;5.528;2022-10-16T00:14:35;100920.72;;;12.87;71.90
43161;BME280;40968;52.342;5.528;2022-10-16T00:17:02;100782.63;;;12.01;71.79
43161;BME280;40968;52.342;5.528;2022-10-16T00:19:30;100938.78;;;12.97;71.83
43161;BME280;40968;52.342;5.528;2022-10-16T00:21:56;100860.47;;;12.46;71.78
43161;BME280;40968;52.342;5.528;2022-10-16T00:24:23;100939.78;;;12.96;71.68
43161;BME280;40968;52.342;5.528;2022-10-16T00:26:50;100835.81;;;12.30;71.60
43161;BME280;40968;52.342;5.528;2022-10-16T00:29:17;100861.09;;;12.38;71.68
43161;BME280;40968;52.342;5.528;2022-10-16T00:31:43;100949.06;;;12.91;71.58
43161;BME280;40968;52.342;5.528;2022-10-16T00:34:10;100875.84;;;12.44;71.44
43161;BME280;40968;52.342;5.528;2022-10-16T00:36:38;100948.22;;;12.91;71.71
43161;BME280;40968;52.342;5.528;2022-10-16T00:39:04;100893.28;;;12.61;71.58
43161;BME280;40968;52.342;5.528;2022-10-16T00:41:32;100938.56;;;12.88;71.72
43161;BME280;40968;52.342;5.528;2022-10-16T00:44:00;100932.34;;;12.88;71.54
43161;BME280;40968;52.342;5.528;2022-10-16T00:46:37;100787.38;;;11.97;71.58
43161;BME280;40968;52.342;5.528;2022-10-16T00:49:05;100882.94;;;12.56;71.81
43161;BME280;40968;52.342;5.528;2022-10-16T00:51:40;100928.91;;;12.86;71.66
43161;BME280;40968;52.342;5.528;2022-10-16T00:54:10;100922.69;;;12.85;71.82
43161;BME280;40968;52.342;5.528;2022-10-16T00:56:37;100926.34;;;12.84;71.81
43161;BME280;40968;52.342;5.528;2022-10-16T00:59:10;100888.78;;;12.62;72.00
43161;BME280;40968;52.342;5.528;2022-10-16T01:01:39;100830.94;;;12.23;71.73
43161;BME280;40968;52.342;5.528;2022-10-16T01:04:05;100904.38;;;12.68;71.78
43161;BME280;40968;52.342;5.528;2022-10-16T01:06:36;100905.59;;;12.75;71.85
43161;BME280;40968;52.342;5.528;2022-10-16T01:09:14;100918.28;;;12.84;71.90
43161;BME280;40968;52.342;5.528;2022-10-16T01:11:49;100933.69;;;12.82;71.90
43161;BME280;40968;52.342;5.528;2022-10-16T01:14:24;100937.34;;;12.81;72.07
43161;BME280;40968;52.342;5.528;2022-10-16T01:16:56;100877.91;;;12.52;72.16
43161;BME280;40968;52.342;5.528;2022-10-16T01:19:36;100839.38;;;12.19;72.06
43161;BME280;40968;52.342;5.528;2022-10-16T01:22:08;100840.22;;;12.19;72.06
43161;BME280;40968;52.342;5.528;2022-10-16T01:24:40;100945.91;;;12.86;72.09
43161;BME280;40968;52.342;5.528;2022-10-16T01:27:09;100889.00;;;12.58;72.09
43161;BME280;40968;52.342;5.528;2022-10-16T01:29:40;100899.00;;;12.68;71.93
43161;BME280;40968;52.342;5.528;2022-10-16T01:32:13;100934.63;;;12.92;72.10
43161;BME280;40968;52.342;5.528;2022-10-16T01:34:48;100621.53;;;11.11;71.93
43161;BME280;40968;52.342;5.528;2022-10-16T01:37:25;100844.81;;;12.51;72.16
43161;BME280;40968;52.342;5.528;2022-10-16T01:39:58;100876.16;;;12.73;72.40
43161;BME280;40968;52.342;5.528;2022-10-16T01:42:31;100904.53;;;12.99;72.18
43161;BME280;40968;52.342;5.528;2022-10-16T01:44:59;100897.31;;;12.99;72.32
43161;BME280;40968;52.342;5.528;2022-10-16T01:47:27;100906.25;;;13.00;72.44
43161;BME280;40968;52.342;5.528;2022-10-16T01:49:56;100834.53;;;12.56;72.31
43161;BME280;40968;52.342;5.528;2022-10-16T01:52:26;100838.44;;;12.52;72.31
43161;BME280;40968;52.342;5.528;2022-10-16T01:54:56;100864.28;;;12.76;72.54
43161;BME280;40968;52.342;5.528;2022-10-16T01:57:24;100840.28;;;12.52;72.52
43161;BME280;40968;52.342;5.528;2022-10-16T01:59:56;100907.50;;;12.96;72.72
43161;BME280;40968;52.342;5.528;2022-10-16T02:02:29;100885.28;;;12.82;72.43
43161;BME280;40968;52.342;5.528;2022-10-16T02:05:02;100913.69;;;13.07;72.42
43161;BME280;40968;52.342;5.528;2022-10-16T02:07:31;100920.06;;;13.06;72.59
43161;BME280;40968;52.342;5.528;2022-10-16T02:09:57;100881.72;;;12.93;72.56
43161;BME280;40968;52.342;5.528;2022-10-16T02:12:27;100897.16;;;13.12;72.53
43161;BME280;40968;52.342;5.528;2022-10-16T02:14:56;100692.94;;;11.81;72.69
43161;BME280;40968;52.342;5.528;2022-10-16T02:17:22;100879.38;;;12.88;72.83
43161;BME280;40968;52.342;5.528;2022-10-16T02:19:52;100834.13;;;12.61;72.99
43161;BME280;40968;52.342;5.528;2022-10-16T02:22:25;100838.13;;;12.67;73.10
43161;BME280;40968;52.342;5.528;2022-10-16T02:24:57;100931.00;;;13.15;73.19
43161;BME280;40968;52.342;5.528;2022-10-16T02:27:27;100882.97;;;12.77;73.31
43161;BME280;40968;52.342;5.528;2022-10-16T02:30:04;100913.13;;;12.92;73.29
43161;BME280;40968;52.342;5.528;2022-10-16T02:32:33;100949.84;;;13.15;73.38
43161;BME280;40968;52.342;5.528;2022-10-16T02:35:02;100912.41;;;12.90;73.56
43161;BME280;40968;52.342;5.528;2022-10-16T02:37:29;100954.63;;;13.11;73.71
43161;BME280;40968;52.342;5.528;2022-10-16T02:39:57;100961.13;;;13.08;73.82
43161;BME280;40968;52.342;5.528;2022-10-16T02:42:28;100762.88;;;11.79;74.07
43161;BME280;40968;52.342;5.528;2022-10-16T02:44:55;100928.94;;;12.74;74.01
43161;BME280;40968;52.342;5.528;2022-10-16T02:47:23;100755.53;;;11.81;74.01
43161;BME280;40968;52.342;5.528;2022-10-16T02:49:49;100967.13;;;13.01;74.15
43161;BME280;40968;52.342;5.528;2022-10-16T02:52:16;100884.41;;;12.49;74.35
43161;BME280;40968;52.342;5.528;2022-10-16T02:54:42;100971.06;;;12.97;74.30
43161;BME280;40968;52.342;5.528;2022-10-16T02:57:09;100887.56;;;12.43;74.38
43161;BME280;40968;52.342;5.528;2022-10-16T02:59:36;100972.91;;;12.96;74.27
43161;BME280;40968;52.342;5.528;2022-10-16T03:02:02;100968.38;;;12.97;74.45
43161;BME280;40968;52.342;5.528;2022-10-16T03:04:30;100924.19;;;12.67;74.57
43161;BME280;40968;52.342;5.528;2022-10-16T03:06:57;100759.56;;;11.64;74.41
43161;BME280;40968;52.342;5.528;2022-10-16T03:09:23;100938.63;;;12.66;74.55
43161;BME280;40968;52.342;5.528;2022-10-16T03:11:50;100987.59;;;12.92;74.65
43161;BME280;40968;52.342;5.528;2022-10-16T03:14:17;100970.56;;;12.91;74.87
43161;BME280;40968;52.342;5.528;2022-10-16T03:16:43;100944.34;;;12.72;75.02
43161;BME280;40968;52.342;5.528;2022-10-16T03:19:10;100747.25;;;11.50;74.88
43161;BME280;40968;52.342;5.528;2022-10-16T03:21:38;100890.25;;;12.43;75.02
43161;BME280;40968;52.342;5.528;2022-10-16T03:24:05;100963.75;;;12.87;75.20
43161;BME280;40968;52.342;5.528;2022-10-16T03:26:31;100925.41;;;12.63;75.27
43161;BME280;40968;52.342;5.528;2022-10-16T03:28:58;100971.94;;;12.86;75.32
43161;BME280;40968;52.342;5.528;2022-10-16T03:31:25;100941.19;;;12.67;75.36
43161;BME280;40968;52.342;5.528;2022-10-16T03:33:51;100932.91;;;12.59;75.41
43161;BME280;40968;52.342;5.528;2022-10-16T03:36:18;100969.88;;;12.78;75.64
43161;BME280;40968;52.342;5.528;2022-10-16T03:38:46;100963.69;;;12.66;75.61
43161;BME280;40968;52.342;5.528;2022-10-16T03:41:12;100879.81;;;12.17;75.63
43161;BME280;40968;52.342;5.528;2022-10-16T03:43:39;100989.94;;;12.74;75.75
43161;BME280;40968;52.342;5.528;2022-10-16T03:46:05;100924.97;;;12.35;75.86
43161;BME280;40968;52.342;5.528;2022-10-16T03:48:32;100929.50;;;12.34;75.87
43161;BME280;40968;52.342;5.528;2022-10-16T03:50:59;100889.59;;;12.07;75.97
43161;BME280;40968;52.342;5.528;2022-10-16T03:53:25;100995.81;;;12.68;76.24
43161;BME280;40968;52.342;5.528;2022-10-16T03:55:53;100995.81;;;12.68;76.31
43161;BME280;40968;52.342;5.528;2022-10-16T03:58:20;100964.31;;;12.47;76.23
43161;BME280;40968;52.342;5.528;2022-10-16T04:00:46;100994.22;;;12.65;76.34
43161;BME280;40968;52.342;5.528;2022-10-16T04:03:14;100981.66;;;12.54;76.43
43161;BME280;40968;52.342;5.528;2022-10-16T04:05:40;100999.84;;;12.62;76.45
43161;BME280;40968;52.342;5.528;2022-10-16T04:08:07;100896.28;;;12.01;76.46
43161;BME280;40968;52.342;5.528;2022-10-16T04:10:34;100957.09;;;12.36;76.48
43161;BME280;40968;52.342;5.528;2022-10-16T04:13:02;100994.00;;;12.57;76.66
43161;BME280;40968;52.342;5.528;2022-10-16T04:15:28;101006.59;;;12.56;76.71
43161;BME280;40968;52.342;5.528;2022-10-16T04:17:55;100811.78;;;11.37;76.75
43161;BME280;40968;52.342;5.528;2022-10-16T04:20:22;101016.47;;;12.56;76.95
43161;BME280;40968;52.342;5.528;2022-10-16T04:22:48;100991.56;;;12.42;76.89
43161;BME280;40968;52.342;5.528;2022-10-16T04:25:15;101020.03;;;12.56;76.77
43161;BME280;40968;52.342;5.528;2022-10-16T04:27:41;100768.69;;;11.05;76.78
43161;BME280;40968;52.342;5.528;2022-10-16T04:30:10;101021.97;;;12.54;77.00
43161;BME280;40968;52.342;5.528;2022-10-16T04:32:37;100971.16;;;12.17;77.08
43161;BME280;40968;52.342;5.528;2022-10-16T04:35:04;100874.75;;;11.56;77.16
43161;BME280;40968;52.342;5.528;2022-10-16T04:37:57;101040.03;;;12.52;76.99
43161;BME280;40968;52.342;5.528;2022-10-16T04:40:23;100985.56;;;12.16;77.12
43161;BME280;40968;52.342;5.528;2022-10-16T04:42:50;100978.94;;;12.09;77.28
43161;BME280;40968;52.342;5.528;2022-10-16T04:45:18;101063.28;;;12.53;77.39
43161;BME280;40968;52.342;5.528;2022-10-16T04:47:44;101042.50;;;12.44;77.30
43161;BME280;40968;52.342;5.528;2022-10-16T04:50:11;100916.22;;;11.63;77.29
43161;BME280;40968;52.342;5.528;2022-10-16T04:52:38;101070.25;;;12.56;77.35
43161;BME280;40968;52.342;5.528;2022-10-16T04:55:05;101072.09;;;12.55;77.39
43161;BME280;40968;52.342;5.528;2022-10-16T04:57:32;101041.38;;;12.35;77.25
43161;BME280;40968;52.342;5.528;2022-10-16T04:59:59;101044.69;;;12.39;77.25
43161;BME280;40968;52.342;5.528;2022-10-16T05:02:27;101072.09;;;12.55;77.34
43161;BME280;40968;52.342;5.528;2022-10-16T05:04:53;101072.09;;;12.55;77.37
43161;BME280;40968;52.342;5.528;2022-10-16T05:07:20;101069.63;;;12.52;77.41
43161;BME280;40968;52.342;5.528;2022-10-16T05:09:47;101050.31;;;12.36;77.51
43161;BME280;40968;52.342;5.528;2022-10-16T05:12:13;101069.38;;;12.44;77.41
43161;BME280;40968;52.342;5.528;2022-10-16T05:14:40;100978.41;;;11.92;77.46
43161;BME280;40968;52.342;5.528;2022-10-16T05:17:06;101063.16;;;12.43;77.49
43161;BME280;40968;52.342;5.528;2022-10-16T05:19:34;101016.81;;;12.06;77.66
43161;BME280;40968;52.342;5.528;2022-10-16T05:22:01;101091.38;;;12.49;77.73
43161;BME280;40968;52.342;5.528;2022-10-16T05:24:27;101075.09;;;12.28;77.58
43161;BME280;40968;52.342;5.528;2022-10-16T05:26:54;101105.66;;;12.50;77.92
43161;BME280;40968;52.342;5.528;2022-10-16T05:29:21;101064.47;;;12.26;77.83
43161;BME280;40968;52.342;5.528;2022-10-16T05:31:50;100949.53;;;11.60;77.71
43161;BME280;40968;52.342;5.528;2022-10-16T05:34:16;101009.59;;;11.95;77.78
43161;BME280;40968;52.342;5.528;2022-10-16T05:36:44;101117.28;;;12.50;77.85
43161;BME280;40968;52.342;5.528;2022-10-16T05:39:11;101122.66;;;12.50;77.89
43161;BME280;40968;52.342;5.528;2022-10-16T05:41:38;101096.34;;;12.31;77.93
43161;BME280;40968;52.342;5.528;2022-10-16T05:44:05;101035.78;;;11.91;77.97
43161;BME280;40968;52.342;5.528;2022-10-16T05:46:32;101024.03;;;11.81;77.88
43161;BME280;40968;52.342;5.528;2022-10-16T05:48:58;101131.94;;;12.46;78.18
43161;BME280;40968;52.342;5.528;2022-10-16T05:51:25;101138.19;;;12.47;78.20
43161;BME280;40968;52.342;5.528;2022-10-16T05:53:53;101137.31;;;12.46;78.24
43161;BME280;40968;52.342;5.528;2022-10-16T05:56:19;101146.13;;;12.48;78.28
43161;BME280;40968;52.342;5.528;2022-10-16T05:58:46;101153.22;;;12.49;78.19
43161;BME280;40968;52.342;5.528;2022-10-16T06:01:14;101065.75;;;11.98;78.18
43161;BME280;40968;52.342;5.528;2022-10-16T06:03:41;101162.03;;;12.51;78.23
43161;BME280;40968;52.342;5.528;2022-10-16T06:06:09;101162.03;;;12.51;78.37
43161;BME280;40968;52.342;5.528;2022-10-16T06:08:36;101086.91;;;12.03;78.40
43161;BME280;40968;52.342;5.528;2022-10-16T06:11:07;101028.88;;;11.65;78.37
43161;BME280;40968;52.342;5.528;2022-10-16T06:13:34;101067.38;;;11.88;78.47
43161;BME280;40968;52.342;5.528;2022-10-16T06:16:01;101113.06;;;12.12;78.61
43161;BME280;40968;52.342;5.528;2022-10-16T06:18:29;101148.41;;;12.30;78.63
43161;BME280;40968;52.342;5.528;2022-10-16T06:20:56;101196.22;;;12.49;78.64
43161;BME280;40968;52.342;5.528;2022-10-16T06:23:23;101192.56;;;12.50;78.80
43161;BME280;40968;52.342;5.528;2022-10-16T06:25:49;101173.00;;;12.37;79.17
43161;BME280;40968;52.342;5.528;2022-10-16T06:28:18;101122.91;;;12.00;79.51
43161;BME280;40968;52.342;5.528;2022-10-16T06:30:44;101210.88;;;12.45;79.97
43161;BME280;40968;52.342;5.528;2022-10-16T06:33:11;101202.25;;;12.28;80.41
43161;BME280;40968;52.342;5.528;2022-10-16T06:35:38;101178.78;;;12.19;80.64
43161;BME280;40968;52.342;5.528;2022-10-16T06:38:05;101118.25;;;11.78;81.21
43161;BME280;40968;52.342;5.528;2022-10-16T06:40:31;101169.19;;;12.04;81.43
43161;BME280;40968;52.342;5.528;2022-10-16T06:42:58;101215.47;;;12.32;81.75
43161;BME280;40968;52.342;5.528;2022-10-16T06:45:26;101193.34;;;12.28;82.05
43161;BME280;40968;52.342;5.528;2022-10-16T06:47:53;101143.75;;;11.97;82.21
43161;BME280;40968;52.342;5.528;2022-10-16T06:50:19;101006.94;;;11.11;82.41
43161;BME280;40968;52.342;5.528;2022-10-16T06:52:46;101172.84;;;12.03;82.60
43161;BME280;40968;52.342;5.528;2022-10-16T06:55:13;101219.81;;;12.21;82.69
43161;BME280;40968;52.342;5.528;2022-10-16T06:57:40;101168.91;;;11.96;82.59
43161;BME280;40968;52.342;5.528;2022-10-16T07:00:08;101166.00;;;11.99;82.53
43161;BME280;40968;52.342;5.528;2022-10-16T07:02:36;101213.50;;;12.22;82.75
43161;BME280;40968;52.342;5.528;2022-10-16T07:05:03;101225.94;;;12.23;82.76
43161;BME280;40968;52.342;5.528;2022-10-16T07:07:30;101225.09;;;12.23;82.62
43161;BME280;40968;52.342;5.528;2022-10-16T07:09:56;101186.88;;;11.95;82.87
43161;BME280;40968;52.342;5.528;2022-10-16T07:12:23;101249.16;;;12.24;82.71
43161;BME280;40968;52.342;5.528;2022-10-16T07:14:49;101206.56;;;12.07;82.80
43161;BME280;40968;52.342;5.528;2022-10-16T07:17:17;101060.63;;;11.22;82.54
43161;BME280;40968;52.342;5.528;2022-10-16T07:19:45;101210.22;;;12.06;82.63
43161;BME280;40968;52.342;5.528;2022-10-16T07:22:12;101198.66;;;11.92;82.69
43161;BME280;40968;52.342;5.528;2022-10-16T07:24:39;100982.72;;;10.63;82.39
43161;BME280;40968;52.342;5.528;2022-10-16T07:27:05;101278.97;;;12.33;82.80
43161;BME280;40968;52.342;5.528;2022-10-16T07:29:32;101220.13;;;12.05;82.50
43161;BME280;40968;52.342;5.528;2022-10-16T07:31:59;101238.38;;;12.13;82.30
43161;BME280;40968;52.342;5.528;2022-10-16T07:34:25;101285.75;;;12.38;82.28
43161;BME280;40968;52.342;5.528;2022-10-16T07:36:54;101137.75;;;11.32;81.98
43161;BME280;40968;52.342;5.528;2022-10-16T07:39:20;101250.81;;;12.14;82.01
43161;BME280;40968;52.342;5.528;2022-10-16T07:41:47;101264.06;;;12.28;81.81
43161;BME280;40968;52.342;5.528;2022-10-16T07:44:15;101295.06;;;12.46;81.63
43161;BME280;40968;52.342;5.528;2022-10-16T07:46:41;101099.66;;;11.26;81.58
43161;BME280;40968;52.342;5.528;2022-10-16T07:49:08;101014.00;;;10.75;80.84
43161;BME280;40968;52.342;5.528;2022-10-16T07:51:35;101320.63;;;12.51;81.28
43161;BME280;40968;52.342;5.528;2022-10-16T07:54:04;101246.75;;;12.08;80.70
43161;BME280;40968;52.342;5.528;2022-10-16T07:56:32;101199.56;;;11.80;80.73
43161;BME280;40968;52.342;5.528;2022-10-16T07:58:59;101060.50;;;10.87;80.56
43161;BME280;40968;52.342;5.528;2022-10-16T08:01:25;101147.19;;;11.37;80.63
43161;BME280;40968;52.342;5.528;2022-10-16T08:03:52;101152.56;;;11.37;80.60
43161;BME280;40968;52.342;5.528;2022-10-16T08:06:20;101332.00;;;12.55;80.67
43161;BME280;40968;52.342;5.528;2022-10-16T08:08:47;101179.44;;;11.61;80.35
43161;BME280;40968;52.342;5.528;2022-10-16T08:11:15;101323.53;;;12.48;80.04
43161;BME280;40968;52.342;5.528;2022-10-16T08:13:42;101126.06;;;11.33;79.72
43161;BME280;40968;52.342;5.528;2022-10-16T08:16:08;101216.69;;;11.90;79.70
43161;BME280;40968;52.342;5.528;2022-10-16T08:18:35;101296.25;;;12.41;79.63
43161;BME280;40968;52.342;5.528;2022-10-16T08:21:02;101144.81;;;11.45;79.35
43161;BME280;40968;52.342;5.528;2022-10-16T08:23:29;101098.19;;;11.22;79.26
43161;BME280;40968;52.342;5.528;2022-10-16T08:26:02;101342.38;;;12.72;79.32
43161;BME280;40968;52.342;5.528;2022-10-16T08:28:31;101361.13;;;12.85;79.59
43161;BME280;40968;52.342;5.528;2022-10-16T08:31:05;101315.53;;;12.59;79.63
43161;BME280;40968;52.342;5.528;2022-10-16T08:33:32;101151.09;;;11.57;79.36
43161;BME280;40968;52.342;5.528;2022-10-16T08:36:00;101364.59;;;12.99;79.32
43161;BME280;40968;52.342;5.528;2022-10-16T08:38:26;101374.91;;;13.05;79.24
43161;BME280;40968;52.342;5.528;2022-10-16T08:40:57;101380.88;;;13.08;79.29
43161;BME280;40968;52.342;5.528;2022-10-16T08:43:43;101376.88;;;13.14;79.51
43161;BME280;40968;52.342;5.528;2022-10-16T08:46:21;101169.81;;;11.83;79.12
43161;BME280;40968;52.342;5.528;2022-10-16T08:48:54;101259.03;;;12.48;79.01
43161;BME280;40968;52.342;5.528;2022-10-16T08:51:24;101385.72;;;13.27;78.91
43161;BME280;40968;52.342;5.528;2022-10-16T08:53:54;101390.63;;;13.34;79.00
43161;BME280;40968;52.342;5.528;2022-10-16T08:56:21;101344.81;;;13.11;78.88
43161;BME280;40968;52.342;5.528;2022-10-16T08:58:50;101352.41;;;13.17;78.82
43161;BME280;40968;52.342;5.528;2022-10-16T09:01:19;101400.22;;;13.49;78.73
43161;BME280;40968;52.342;5.528;2022-10-16T09:04:05;101406.00;;;13.56;78.72
43161;BME280;40968;52.342;5.528;2022-10-16T09:06:42;101391.94;;;13.52;78.37
43161;BME280;40968;52.342;5.528;2022-10-16T09:09:24;101425.63;;;13.69;78.05
43161;BME280;40968;52.342;5.528;2022-10-16T09:12:01;101420.47;;;13.77;78.31
43161;BME280;40968;52.342;5.528;2022-10-16T09:14:40;101426.22;;;13.84;77.90
43161;BME280;40968;52.342;5.528;2022-10-16T09:17:22;101433.84;;;13.90;77.55
43161;BME280;40968;52.342;5.528;2022-10-16T09:19:54;101436.91;;;13.97;76.94
43161;BME280;40968;52.342;5.528;2022-10-16T09:22:27;101445.34;;;14.04;76.87
43161;BME280;40968;52.342;5.528;2022-10-16T09:24:55;101427.22;;;13.95;76.83
43161;BME280;40968;52.342;5.528;2022-10-16T09:27:26;101388.41;;;13.74;76.07
43161;BME280;40968;52.342;5.528;2022-10-16T09:29:54;101477.34;;;14.20;75.51
43161;BME280;40968;52.342;5.528;2022-10-16T09:32:22;101466.19;;;14.24;75.79
43161;BME280;40968;52.342;5.528;2022-10-16T09:34:50;101441.94;;;14.13;75.06
43161;BME280;40968;52.342;5.528;2022-10-16T09:37:20;101459.44;;;14.30;74.73
43161;BME280;40968;52.342;5.528;2022-10-16T09:39:49;101465.47;;;14.34;73.20
43161;BME280;40968;52.342;5.528;2022-10-16T09:42:17;101370.25;;;13.76;73.34
43161;BME280;40968;52.342;5.528;2022-10-16T09:44:47;101452.22;;;14.31;71.13
43161;BME280;40968;52.342;5.528;2022-10-16T09:47:18;101451.00;;;14.35;70.80
43161;BME280;40968;52.342;5.528;2022-10-16T09:49:52;101484.69;;;14.52;69.96
43161;BME280;40968;52.342;5.528;2022-10-16T09:52:22;101487.00;;;14.56;70.24
43161;BME280;40968;52.342;5.528;2022-10-16T09:54:50;101473.50;;;14.56;70.68
43161;BME280;40968;52.342;5.528;2022-10-16T09:57:17;101457.38;;;14.45;70.68
43161;BME280;40968;52.342;5.528;2022-10-16T09:59:48;101479.91;;;14.67;70.71
43161;BME280;40968;52.342;5.528;2022-10-16T10:02:18;101452.31;;;14.52;70.67
43161;BME280;40968;52.342;5.528;2022-10-16T10:04:49;101461.63;;;14.70;70.35
43161;BME280;40968;52.342;5.528;2022-10-16T10:07:18;101421.19;;;14.48;69.89
43161;BME280;40968;52.342;5.528;2022-10-16T10:09:45;101303.28;;;13.83;68.98
43161;BME280;40968;52.342;5.528;2022-10-16T10:12:21;101488.91;;;15.00;68.59
43161;BME280;40968;52.342;5.528;2022-10-16T10:14:49;101438.19;;;14.71;68.21
43161;BME280;40968;52.342;5.528;2022-10-16T10:17:20;101449.25;;;14.79;68.74
43161;BME280;40968;52.342;5.528;2022-10-16T10:19:49;101496.25;;;15.09;68.47
43161;BME280;40968;52.342;5.528;2022-10-16T10:22:26;101494.50;;;15.19;67.64
43161;BME280;40968;52.342;5.528;2022-10-16T10:25:10;101430.44;;;14.89;67.93
43161;BME280;40968;52.342;5.528;2022-10-16T10:27:48;101486.00;;;15.24;67.89
43161;BME280;40968;52.342;5.528;2022-10-16T10:30:20;101510.31;;;15.56;66.93
43161;BME280;40968;52.342;5.528;2022-10-16T10:32:58;101516.75;;;15.65;65.28
43161;BME280;40968;52.342;5.528;2022-10-16T10:35:34;101446.31;;;15.36;65.52
43161;BME280;40968;52.342;5.528;2022-10-16T10:38:19;101453.63;;;15.45;63.82
43161;BME280;40968;52.342;5.528;2022-10-16T10:40:52;101530.66;;;15.93;64.58
43161;BME280;40968;52.342;5.528;2022-10-16T10:43:32;101493.78;;;15.71;64.69
43161;BME280;40968;52.342;5.528;2022-10-16T10:46:09;101534.66;;;15.99;64.96
43161;BME280;40968;52.342;5.528;2022-10-16T10:48:49;101533.88;;;16.08;64.29
43161;BME280;40968;52.342;5.528;2022-10-16T10:51:22;101443.47;;;15.58;64.77
43161;BME280;40968;52.342;5.528;2022-10-16T10:53:58;101480.72;;;15.76;64.16
43161;BME280;40968;52.342;5.528;2022-10-16T10:56:46;101520.72;;;16.03;63.65
43161;BME280;40968;52.342;5.528;2022-10-16T11:02:17;101503.00;;;16.11;62.27
43161;BME280;40968;52.342;5.528;2022-10-16T11:05:10;101495.88;;;16.10;62.62
43161;BME280;40968;52.342;5.528;2022-10-16T11:07:45;101541.72;;;16.42;62.82
43161;BME280;40968;52.342;5.528;2022-10-16T11:10:17;101553.47;;;16.52;62.02
43161;BME280;40968;52.342;5.528;2022-10-16T11:12:47;101554.06;;;16.66;60.98
43161;BME280;40968;52.342;5.528;2022-10-16T11:15:18;101561.81;;;16.80;60.57
43161;BME280;40968;52.342;5.528;2022-10-16T11:17:50;101572.72;;;16.69;60.73
43161;BME280;40968;52.342;5.528;2022-10-16T11:20:22;101522.13;;;16.60;60.91
43161;BME280;40968;52.342;5.528;2022-10-16T11:22:52;101425.53;;;16.00;61.09
43161;BME280;40968;52.342;5.528;2022-10-16T11:25:23;101568.88;;;16.93;61.00
43161;BME280;40968;52.342;5.528;2022-10-16T11:27:56;101503.31;;;16.48;60.96
43161;BME280;40968;52.342;5.528;2022-10-16T11:30:26;101571.06;;;17.09;60.74
43161;BME280;40968;52.342;5.528;2022-10-16T11:33:12;101577.06;;;17.32;60.97
43161;BME280;40968;52.342;5.528;2022-10-16T11:35:53;101569.69;;;17.53;59.97
43161;BME280;40968;52.342;5.528;2022-10-16T11:38:26;101565.81;;;17.66;58.81
43161;BME280;40968;52.342;5.528;2022-10-16T11:40:59;101503.81;;;17.53;57.94
43161;BME280;40968;52.342;5.528;2022-10-16T11:43:31;101535.72;;;17.88;55.96
43161;BME280;40968;52.342;5.528;2022-10-16T11:46:02;101574.66;;;18.17;55.54
43161;BME280;40968;52.342;5.528;2022-10-16T11:48:35;101534.16;;;18.05;54.13
43161;BME280;40968;52.342;5.528;2022-10-16T11:51:11;101576.16;;;18.39;54.36
43161;BME280;40968;52.342;5.528;2022-10-16T11:53:45;101572.16;;;18.43;54.93
43161;BME280;40968;52.342;5.528;2022-10-16T11:56:13;101519.13;;;18.11;54.62
43161;BME280;40968;52.342;5.528;2022-10-16T11:58:50;101449.84;;;17.79;53.79
43161;BME280;40968;52.342;5.528;2022-10-16T12:01:24;101462.81;;;17.95;54.47
43161;BME280;40968;52.342;5.528;2022-10-16T12:04:02;101597.88;;;18.86;54.21
43161;BME280;40968;52.342;5.528;2022-10-16T12:06:35;101554.78;;;18.64;54.42
43161;BME280;40968;52.342;5.528;2022-10-16T12:09:04;101499.00;;;18.51;53.94
43161;BME280;40968;52.342;5.528;2022-10-16T12:11:34;101599.84;;;19.22;53.96
43161;BME280;40968;52.342;5.528;2022-10-16T12:14:07;101600.16;;;19.37;53.23
43161;BME280;40968;52.342;5.528;2022-10-16T12:16:37;101599.31;;;19.54;53.21
43161;BME280;40968;52.342;5.528;2022-10-16T12:19:11;101600.66;;;19.68;52.34
43161;BME280;40968;52.342;5.528;2022-10-16T12:21:40;101607.84;;;19.60;51.40
43161;BME280;40968;52.342;5.528;2022-10-16T12:24:20;101567.38;;;19.38;52.17
43161;BME280;40968;52.342;5.528;2022-10-16T12:26:48;101606.25;;;19.67;51.46
43161;BME280;40968;52.342;5.528;2022-10-16T12:29:28;101602.91;;;19.73;49.76
43161;BME280;40968;52.342;5.528;2022-10-16T12:31:56;101477.16;;;18.99;50.59
43161;BME280;40968;52.342;5.528;2022-10-16T12:34:28;101606.78;;;19.88;49.80
43161;BME280;40968;52.342;5.528;2022-10-16T12:37:08;101589.41;;;19.81;48.67
43161;BME280;40968;52.342;5.528;2022-10-16T12:39:36;101621.50;;;19.96;49.03
43161;BME280;40968;52.342;5.528;2022-10-16T12:42:04;101571.22;;;19.64;48.42
43161;BME280;40968;52.342;5.528;2022-10-16T12:44:33;101622.44;;;20.04;48.92
43161;BME280;40968;52.342;5.528;2022-10-16T12:47:01;101359.66;;;18.61;47.50
43161;BME280;40968;52.342;5.528;2022-10-16T12:49:36;101575.38;;;20.12;46.22
43161;BME280;40968;52.342;5.528;2022-10-16T12:52:04;101523.03;;;19.92;47.10
43161;BME280;40968;52.342;5.528;2022-10-16T12:54:50;101621.31;;;20.42;47.92
43161;BME280;40968;52.342;5.528;2022-10-16T12:57:31;101518.69;;;19.81;46.29
43161;BME280;40968;52.342;5.528;2022-10-16T13:00:06;101590.88;;;20.20;47.42
43161;BME280;40968;52.342;5.528;2022-10-16T13:02:47;101581.53;;;19.96;46.40
43161;BME280;40968;52.342;5.528;2022-10-16T13:05:30;101630.16;;;20.17;46.52
43161;BME280;40968;52.342;5.528;2022-10-16T13:08:15;101601.44;;;19.97;45.62